Time;durP1;ratioP1;P1;durP2;ratioP2;P2;SDS_P1;SDS_P2;PMS_P1;PMS_P2;Temp;Humidity;BMP_temperature;BMP_pressure;BME280_temperature;BME280_humidity;BME280_pressure;Samples;Min_cycle;Max_cycle;Signal;HPM_P1;HPM_P2
2024/04/04 00:01:54;;;;;;;0.80;0.80;;;;;;;-145.63;43.21;39344.97;5044163;28;20056;-64
2024/04/04 00:04:28;;;;;;;1.10;1.10;;;;;;;-145.63;43.55;39339.13;5050837;28;20037;-64
2024/04/04 00:06:57;;;;;;;1.27;1.00;;;;;;;-145.63;43.70;39323.47;5040297;28;20033;-64
2024/04/04 00:09:41;;;;;;;1.20;1.10;;;;;;;-145.63;43.11;39344.97;5036938;28;20159;-66
2024/04/04 00:12:15;;;;;;;1.63;0.93;;;;;;;-145.63;43.55;39313.69;5046833;28;20120;-65
2024/04/04 00:15:06;;;;;;;1.00;1.00;;;;;;;-145.63;44.21;39388.00;5031583;28;20112;-65
2024/04/04 00:18:05;;;;;;;1.00;0.90;;;;;;;-145.63;43.83;39341.06;5032658;28;20049;-65
2024/04/04 00:20:43;;;;;;;1.45;1.00;;;;;;;-145.63;43.60;39323.47;5053160;28;20088;-65
2024/04/04 00:23:26;;;;;;;0.90;0.90;;;;;;;-145.63;43.79;39317.59;5034866;28;20080;-65
2024/04/04 00:26:07;;;;;;;1.20;1.10;;;;;;;-145.63;43.33;39343.03;5052727;28;20029;-65
2024/04/04 00:28:51;;;;;;;1.02;1.00;;;;;;;-145.63;43.85;39325.41;5039421;28;20083;-64
2024/04/04 00:31:17;;;;;;;1.58;1.10;;;;;;;-145.63;43.49;39329.34;5048144;28;20450;-64
2024/04/04 00:33:42;;;;;;;1.15;1.05;;;;;;;-145.63;43.56;39329.34;5045385;28;20056;-65
2024/04/04 00:42:15;;;;;;;1.10;1.00;;;;;;;-145.63;43.31;39300.00;5043409;28;20033;-65
2024/04/04 00:44:40;;;;;;;1.30;1.20;;;;;;;-145.63;43.02;39296.09;5034704;28;20052;-65
2024/04/04 00:47:18;;;;;;;0.88;0.88;;;;;;;-145.63;43.35;39327.38;5053664;28;20033;-64
2024/04/04 00:50:03;;;;;;;1.00;1.00;;;;;;;-145.63;43.78;39358.66;5053935;28;20049;-65
2024/04/04 00:52:32;;;;;;;2.08;1.00;;;;;;;-145.63;43.24;39329.34;5049750;28;20082;-65
2024/04/04 00:55:06;;;;;;;1.02;0.85;;;;;;;-145.63;44.28;39305.88;5045543;28;20505;-65
2024/04/04 01:00:35;;;;;;;0.90;0.90;;;;;;;-145.63;43.41;39317.59;5053780;28;20048;-63
2024/04/04 01:03:23;;;;;;;1.10;1.00;;;;;;;-145.63;43.80;39323.47;5053564;28;20121;-64
2024/04/04 01:05:54;;;;;;;3.80;1.40;;;;;;;-145.63;43.50;39323.47;5052980;28;20124;-63
2024/04/04 01:11:35;;;;;;;0.80;0.80;;;;;;;-145.63;43.89;39298.03;5033654;28;19923;-65
2024/04/04 01:14:41;;;;;;;2.78;0.95;;;;;;;-145.63;43.04;39309.78;5034634;28;20425;-65
2024/04/04 01:17:28;;;;;;;2.15;1.05;;;;;;;-145.63;43.45;39327.38;5042589;28;20036;-65
2024/04/04 01:20:12;;;;;;;0.80;0.80;;;;;;;-145.63;43.42;39344.97;5034224;28;20136;-65
2024/04/04 01:22:47;;;;;;;1.23;1.08;;;;;;;-145.63;43.00;39329.34;5032545;28;20398;-64
2024/04/04 01:25:12;;;;;;;1.23;1.13;;;;;;;-145.63;42.85;39317.59;5040902;28;20057;-63
2024/04/04 01:27:41;;;;;;;0.95;0.95;;;;;;;-145.63;42.56;39337.16;5041206;28;20444;-64
2024/04/04 01:30:22;;;;;;;1.08;1.00;;;;;;;-145.63;42.70;39331.28;5052789;28;20049;-64
2024/04/04 01:33:06;;;;;;;1.00;1.00;;;;;;;-145.63;42.99;39329.34;5032426;28;20064;-64
2024/04/04 01:35:31;;;;;;;1.00;1.00;;;;;;;-145.63;43.15;39327.38;5052841;28;20021;-65
2024/04/04 01:38:02;;;;;;;0.90;0.90;;;;;;;-145.63;43.00;39352.81;5053137;28;20064;-64
2024/04/04 01:40:40;;;;;;;0.85;0.85;;;;;;;-145.63;42.42;39317.59;5049498;28;20074;-65
2024/04/04 01:43:09;;;;;;;0.70;0.70;;;;;;;-145.63;42.55;39325.41;5046814;28;20067;-65
2024/04/04 01:45:55;;;;;;;1.75;1.00;;;;;;;-145.63;41.95;39137.69;5052755;28;20474;-65
2024/04/04 01:48:27;;;;;;;0.65;0.65;;;;;;;-145.63;42.35;39327.38;5053220;28;20471;-65
2024/04/04 01:51:32;;;;;;;2.17;0.90;;;;;;;-145.63;42.16;39321.50;5060748;28;20536;-65
2024/04/04 01:54:05;;;;;;;0.85;0.85;;;;;;;-145.63;42.29;39329.34;5050819;28;20154;-65
2024/04/04 01:56:43;;;;;;;0.80;0.80;;;;;;;-145.63;42.31;39354.75;5032947;28;20526;-65
2024/04/04 01:59:10;;;;;;;0.80;0.80;;;;;;;-145.63;42.14;39344.97;5052804;28;20029;-65
2024/04/04 02:01:39;;;;;;;0.80;0.80;;;;;;;-145.63;42.83;39294.13;5051236;28;20451;-66
2024/04/04 02:10:56;;;;;;;0.70;0.70;;;;;;;-145.63;42.59;39325.41;5056636;28;20075;-65
2024/04/04 02:13:33;;;;;;;0.85;0.85;;;;;;;-145.63;42.22;39319.56;5052373;28;20021;-64
2024/04/04 02:16:05;;;;;;;0.82;0.82;;;;;;;-145.63;43.29;39329.34;5038387;28;20951;-65
2024/04/04 02:18:39;;;;;;;1.73;0.80;;;;;;;-145.63;42.98;39344.97;5053561;28;20593;-65
2024/04/04 02:21:05;;;;;;;0.77;0.77;;;;;;;-145.63;43.49;39341.06;5045091;28;20713;-65
2024/04/04 02:23:47;;;;;;;0.70;0.70;;;;;;;-145.63;43.55;39344.97;5041358;28;20063;-64
2024/04/04 02:26:21;;;;;;;0.95;0.90;;;;;;;-145.63;43.02;39301.94;5045616;28;20119;-65
2024/04/04 02:29:10;;;;;;;3.22;0.90;;;;;;;-145.63;43.34;39321.50;5035726;28;20056;-65
2024/04/04 02:31:39;;;;;;;0.70;0.70;;;;;;;-145.63;43.67;39321.50;5051933;28;20041;-65
2024/04/04 02:34:13;;;;;;;0.98;0.93;;;;;;;-145.63;43.35;39327.38;5034281;28;20379;-64
2024/04/04 02:36:50;;;;;;;0.93;0.93;;;;;;;-145.63;43.40;39327.38;5052715;28;20165;-65
2024/04/04 02:39:28;;;;;;;0.95;0.95;;;;;;;-145.63;43.30;39335.19;5042240;28;20030;-64
2024/04/04 02:42:02;;;;;;;0.90;0.90;;;;;;;-145.63;43.92;39356.72;5039696;28;20033;-65
2024/04/04 02:44:43;;;;;;;1.00;1.00;;;;;;;-145.63;43.33;39288.25;5041648;28;20477;-65
2024/04/04 02:47:14;;;;;;;1.50;1.25;;;;;;;-145.63;43.42;39290.22;5051308;28;20033;-66
2024/04/04 02:49:50;;;;;;;1.75;1.20;;;;;;;-145.63;43.81;39327.38;5050101;28;20056;-64
2024/04/04 02:52:21;;;;;;;1.30;1.20;;;;;;;-145.63;44.10;39327.38;5071121;28;20064;-65
2024/04/04 02:54:56;;;;;;;2.03;1.00;;;;;;;-145.63;44.47;39309.78;5050307;28;20095;-65
2024/04/04 02:57:30;;;;;;;1.13;1.00;;;;;;;-145.63;44.02;39303.91;5039367;28;20732;-64
2024/04/04 03:00:20;;;;;;;1.10;0.80;;;;;;;-145.63;43.56;39337.16;5033340;28;20756;-65
2024/04/04 03:03:00;;;;;;;1.00;0.90;;;;;;;-145.63;43.78;39329.34;5046805;28;20033;-65
2024/04/04 03:05:45;;;;;;;0.90;0.90;;;;;;;-145.63;43.54;39337.16;5043763;28;20080;-66
2024/04/04 03:08:17;;;;;;;3.42;1.08;;;;;;;-145.63;44.09;39337.16;5037837;28;20530;-66
2024/04/04 03:11:05;;;;;;;0.90;0.90;;;;;;;-145.63;44.14;39331.28;5031936;28;20064;-65
2024/04/04 03:13:51;;;;;;;1.55;1.30;;;;;;;-145.63;43.93;39325.41;5033877;28;20069;-65
2024/04/04 03:16:17;;;;;;;1.30;1.20;;;;;;;-145.63;43.95;39348.88;5051045;28;20068;-66
2024/04/04 03:18:45;;;;;;;2.15;1.15;;;;;;;-145.63;43.64;39346.94;5035352;28;20086;-66
2024/04/04 03:21:48;;;;;;;1.35;1.25;;;;;;;-145.63;43.62;39323.47;5037694;28;20027;-64
2024/04/04 03:24:36;;;;;;;1.70;1.30;;;;;;;-145.63;44.12;39346.94;5046073;28;20371;-64
2024/04/04 03:27:38;;;;;;;1.48;1.10;;;;;;;-145.63;44.53;39337.16;5036213;28;20029;-64
2024/04/04 03:30:16;;;;;;;1.15;1.10;;;;;;;-145.63;46.09;39327.38;5025731;28;20454;-65
2024/04/04 03:32:53;;;;;;;1.90;0.90;;;;;;;-145.63;45.79;39360.63;5037901;28;20586;-66
2024/04/04 03:35:18;;;;;;;1.00;1.00;;;;;;;-145.63;44.94;39315.66;5031020;28;20081;-66
2024/04/04 03:37:44;;;;;;;2.38;1.10;;;;;;;-145.63;45.22;39313.69;5059382;28;20066;-64
2024/04/04 03:40:16;;;;;;;1.10;1.10;;;;;;;-145.63;45.40;39331.28;5014006;28;20025;-65
2024/04/04 03:42:52;;;;;;;1.27;1.17;;;;;;;-145.63;45.04;39317.59;5031650;28;20409;-64
2024/04/04 03:45:17;;;;;;;1.17;1.08;;;;;;;-145.63;45.10;39329.34;5041608;28;20124;-66
2024/04/04 03:50:39;;;;;;;1.10;1.10;;;;;;;-145.63;45.37;39333.25;5044272;28;20025;-66
2024/04/04 03:53:04;;;;;;;1.40;1.30;;;;;;;-145.63;45.07;39327.38;5046157;28;20034;-66
2024/04/04 03:55:33;;;;;;;1.38;1.27;;;;;;;-145.63;45.34;39325.41;5030907;28;20037;-65
2024/04/04 03:58:29;;;;;;;1.08;1.08;;;;;;;-145.63;44.58;39317.59;5031311;28;20037;-65
2024/04/04 04:01:18;;;;;;;1.35;1.23;;;;;;;-145.63;44.26;39331.28;5028920;28;20363;-64
2024/04/04 04:03:50;;;;;;;1.30;1.20;;;;;;;-145.63;44.31;39323.47;5048753;28;20036;-64
2024/04/04 04:06:42;;;;;;;1.25;1.15;;;;;;;-145.63;43.26;39341.06;5045130;28;20451;-64
2024/04/04 04:09:11;;;;;;;3.00;1.10;;;;;;;-145.63;43.09;39339.13;5051009;28;20033;-64
2024/04/04 04:12:07;;;;;;;2.38;1.20;;;;;;;-145.63;43.38;39329.34;5040785;28;20421;-65
2024/04/04 04:14:35;;;;;;;0.90;0.90;;;;;;;-145.63;43.15;39319.56;5038553;28;20505;-65
2024/04/04 04:17:30;;;;;;;1.58;1.10;;;;;;;-145.63;43.02;39321.50;5048612;28;20025;-65
2024/04/04 04:24:07;;;;;;;1.15;1.05;;;;;;;-145.63;43.62;39321.50;5034144;28;20108;-64
2024/04/04 04:29:38;;;;;;;4.25;1.35;;;;;;;-145.63;43.55;39333.25;5042788;28;20037;-67
2024/04/04 04:32:07;;;;;;;3.60;1.30;;;;;;;-145.63;43.73;39352.81;5030215;28;20451;-66
2024/04/04 04:34:38;;;;;;;1.83;1.17;;;;;;;-145.63;43.48;39303.91;5047072;28;20410;-66
2024/04/04 04:40:11;;;;;;;3.30;1.60;;;;;;;-145.63;44.23;39317.59;5014462;28;21557;-66
2024/04/04 04:42:42;;;;;;;5.05;1.30;;;;;;;-145.63;43.59;39327.38;5047538;28;20041;-65
2024/04/04 04:45:24;;;;;;;3.25;1.30;;;;;;;-145.63;43.62;39317.59;5040611;28;20075;-65
2024/04/04 04:51:39;;;;;;;1.92;1.30;;;;;;;-145.63;43.45;39343.03;5045483;28;20140;-65
2024/04/04 04:54:24;;;;;;;2.47;1.38;;;;;;;-145.63;43.64;39317.59;5049992;28;20053;-67
2024/04/04 04:56:49;;;;;;;4.35;1.33;;;;;;;-145.63;43.66;39335.19;5048255;28;20148;-63
2024/04/04 04:59:55;;;;;;;3.92;1.20;;;;;;;-145.63;43.02;39323.47;5038727;28;20129;-64
2024/04/04 05:02:47;;;;;;;1.52;1.00;;;;;;;-145.63;43.15;39364.53;5042758;28;20095;-63
2024/04/04 05:05:17;;;;;;;1.05;0.85;;;;;;;-145.63;42.56;39380.19;5044789;28;20036;-65
2024/04/04 05:07:58;;;;;;;3.53;1.17;;;;;;;-145.63;42.87;39343.03;5031190;28;20087;-65
2024/04/04 05:10:23;;;;;;;1.85;1.00;;;;;;;-145.63;42.08;39348.88;5034095;28;20550;-64
2024/04/04 05:12:58;;;;;;;3.00;1.33;;;;;;;-145.63;42.16;39296.09;5042358;28;20112;-65
2024/04/04 05:16:07;;;;;;;7.10;2.03;;;;;;;-145.63;42.50;39344.97;5054314;28;20036;-64
2024/04/04 05:18:51;;;;;;;5.82;2.10;;;;;;;-145.63;41.88;39323.47;5038398;28;20382;-64
2024/04/04 05:21:38;;;;;;;3.78;1.45;;;;;;;-145.63;41.75;39335.19;5047136;28;20041;-64
2024/04/04 05:24:12;;;;;;;6.18;2.42;;;;;;;-145.63;42.05;39323.47;5042872;28;20037;-64
2024/04/04 05:26:38;;;;;;;5.00;1.73;;;;;;;-145.63;42.03;39290.22;5054234;28;20033;-64
2024/04/04 05:29:04;;;;;;;6.00;1.52;;;;;;;-145.63;41.34;39282.41;5049510;28;20045;-63
2024/04/04 05:31:35;;;;;;;3.67;1.35;;;;;;;-145.63;41.71;39282.41;5033911;28;20057;-64
2024/04/04 05:34:04;;;;;;;8.57;1.70;;;;;;;-145.63;42.52;39313.69;5053664;28;20044;-64
2024/04/04 05:36:48;;;;;;;4.47;1.13;;;;;;;-145.63;41.84;39266.75;5037451;28;20397;-63
2024/04/04 05:39:19;;;;;;;2.97;0.90;;;;;;;-145.63;42.30;39286.31;5046597;28;20049;-65
2024/04/04 05:41:57;;;;;;;2.53;1.10;;;;;;;-145.63;42.45;39278.47;5053052;28;20119;-64
2024/04/04 05:45:03;;;;;;;2.15;1.30;;;;;;;-145.63;41.95;39311.72;5052633;28;20028;-64
2024/04/04 05:47:50;;;;;;;1.58;1.00;;;;;;;-145.63;42.72;39344.97;5043868;28;20045;-64
2024/04/04 05:50:34;;;;;;;1.10;1.00;;;;;;;-145.63;43.53;39329.34;5022628;28;20424;-64
2024/04/04 05:53:03;;;;;;;2.72;1.00;;;;;;;-145.63;45.39;39337.16;5070280;28;20033;-64
2024/04/04 05:55:44;;;;;;;1.60;1.27;;;;;;;-145.63;46.74;39343.03;5053140;28;20029;-64
2024/04/04 05:58:28;;;;;;;2.15;1.58;;;;;;;-145.63;48.78;39301.94;5032222;28;20112;-63
2024/04/04 06:01:12;;;;;;;5.72;4.90;;;;;;;-145.63;48.94;39298.03;5050491;28;20082;-65
2024/04/04 06:03:39;;;;;;;3.40;1.80;;;;;;;-145.63;50.04;39311.72;5052408;28;20107;-64
2024/04/04 06:06:13;;;;;;;1.30;1.20;;;;;;;-145.63;49.96;39321.50;5051940;28;20056;-65
2024/04/04 06:09:00;;;;;;;3.65;1.88;;;;;;;-145.63;50.47;39292.19;5052924;28;20036;-65
2024/04/04 06:11:53;;;;;;;1.70;1.40;;;;;;;-145.63;50.06;39286.31;5044918;28;20029;-64
2024/04/04 06:14:31;;;;;;;4.80;3.13;;;;;;;-145.63;49.02;39272.63;5032243;28;20042;-65
2024/04/04 06:16:57;;;;;;;1.48;1.25;;;;;;;-145.63;48.10;39274.56;5044253;28;20033;-64
2024/04/04 06:19:44;;;;;;;2.20;1.98;;;;;;;-145.63;47.47;39262.84;5031890;28;20405;-65
2024/04/04 06:22:16;;;;;;;1.30;1.20;;;;;;;-145.63;46.70;39245.25;5014991;28;20032;-63
2024/04/04 06:25:00;;;;;;;1.50;1.20;;;;;;;-145.63;45.54;39307.81;5048677;28;20056;-64
2024/04/04 06:27:46;;;;;;;1.58;1.35;;;;;;;-145.63;45.38;39262.84;5051727;28;20054;-65
2024/04/04 06:30:14;;;;;;;4.78;1.42;;;;;;;-145.63;44.49;39249.16;5041121;28;20053;-65
2024/04/04 06:33:10;;;;;;;1.45;1.23;;;;;;;-145.63;44.49;39298.03;5043580;28;20128;-63
2024/04/04 06:35:41;;;;;;;2.13;1.35;;;;;;;-145.63;44.69;39282.41;5044777;28;20036;-64
2024/04/04 06:38:31;;;;;;;3.40;1.93;;;;;;;-145.63;44.49;39276.53;5049118;28;20041;-64
2024/04/04 06:41:27;;;;;;;2.67;2.13;;;;;;;-145.63;44.44;39276.53;5063351;28;20870;-64
2024/04/04 06:44:36;;;;;;;3.35;1.25;;;;;;;-145.63;43.38;39294.13;5043227;28;20086;-65
2024/04/04 06:47:10;;;;;;;1.70;1.50;;;;;;;-145.63;43.36;39301.94;5046666;28;20474;-65
2024/04/04 06:49:55;;;;;;;3.30;1.63;;;;;;;-145.63;43.09;39274.56;5051888;28;20480;-65
2024/04/04 06:52:42;;;;;;;3.20;1.73;;;;;;;-145.63;42.86;39280.44;5063015;28;20109;-64
2024/04/04 06:55:19;;;;;;;1.77;1.20;;;;;;;-145.63;43.07;39278.47;5041191;28;20025;-65
2024/04/04 06:57:54;;;;;;;2.45;1.50;;;;;;;-145.63;43.00;39274.56;5038782;28;20378;-65
2024/04/04 07:00:38;;;;;;;2.08;1.60;;;;;;;-145.63;42.53;39278.47;5053491;28;20109;-63
2024/04/04 07:03:15;;;;;;;2.72;1.27;;;;;;;-145.63;43.13;39305.88;5051789;28;20040;-65
2024/04/04 07:05:56;;;;;;;1.50;1.40;;;;;;;-145.63;43.32;39305.88;5047381;28;20037;-65
2024/04/04 07:08:35;;;;;;;2.60;1.30;;;;;;;-145.63;42.29;39286.31;5047263;28;20037;-64
2024/04/04 07:11:09;;;;;;;1.92;1.15;;;;;;;-145.63;42.14;39329.34;5033608;28;20037;-63
2024/04/04 07:13:54;;;;;;;1.02;1.00;;;;;;;-145.63;42.53;39298.03;5051407;28;20101;-64
2024/04/04 07:16:57;;;;;;;3.47;1.10;;;;;;;-145.63;42.85;39292.19;5013637;28;20033;-65
2024/04/04 07:19:50;;;;;;;1.95;1.08;;;;;;;-145.63;41.27;39286.31;5031130;28;20455;-65
2024/04/04 07:22:27;;;;;;;1.88;1.10;;;;;;;-145.63;41.51;39256.97;5047495;28;20451;-64
2024/04/04 07:24:53;;;;;;;2.40;1.15;;;;;;;-145.63;41.98;39276.53;5052879;28;20497;-66
2024/04/04 07:27:24;;;;;;;2.95;1.20;;;;;;;-145.63;42.47;39264.78;5045819;28;20075;-65
2024/04/04 07:29:54;;;;;;;2.47;1.10;;;;;;;-145.63;40.79;39255.00;5038694;28;20025;-65
2024/04/04 07:32:44;;;;;;;1.42;1.33;;;;;;;-145.63;40.75;39266.75;5047539;28;20110;-65
2024/04/04 07:35:21;;;;;;;3.17;1.08;;;;;;;-145.63;39.97;39266.75;5031385;28;20835;-65
2024/04/04 07:37:56;;;;;;;1.58;1.10;;;;;;;-145.63;40.84;39278.47;5065834;28;20033;-64
2024/04/04 07:40:52;;;;;;;4.70;1.48;;;;;;;-145.63;39.81;39247.19;5066915;28;20039;-69
2024/04/04 07:46:42;;;;;;;3.33;1.10;;;;;;;-145.63;40.35;39274.56;5025562;28;20094;-65
2024/04/04 07:49:33;;;;;;;3.17;1.20;;;;;;;-145.63;41.04;39266.75;5059159;28;20148;-64
2024/04/04 07:52:14;;;;;;;2.45;1.27;;;;;;;-145.63;40.70;39290.22;5053685;28;20082;-64
2024/04/04 08:03:56;;;;;;;3.97;1.38;;;;;;;-145.63;39.19;39255.00;5045282;28;20098;-64
2024/04/04 08:06:22;;;;;;;3.42;1.50;;;;;;;-145.63;39.12;39262.84;5038484;28;20034;-65
2024/04/04 08:11:47;;;;;;;5.28;1.20;;;;;;;-145.63;38.20;39262.84;5041561;28;20035;-64
2024/04/04 08:14:13;;;;;;;3.10;1.10;;;;;;;-145.63;37.93;39256.97;5024294;28;20040;-64
2024/04/04 08:17:15;;;;;;;3.45;1.25;;;;;;;-145.63;38.68;39272.63;5044962;28;20476;-64
2024/04/04 08:19:59;;;;;;;1.75;0.85;;;;;;;-145.63;38.14;39251.09;5067360;28;20103;-65
2024/04/04 08:22:31;;;;;;;4.55;1.40;;;;;;;-145.63;38.54;39264.78;5031020;28;20029;-66
2024/04/04 08:25:15;;;;;;;2.05;1.30;;;;;;;-145.63;39.03;39286.31;5044543;28;20399;-64
2024/04/04 08:27:48;;;;;;;3.85;1.30;;;;;;;-145.63;39.12;39301.94;5050738;28;20090;-65
2024/04/04 08:30:51;;;;;;;3.90;1.58;;;;;;;-145.63;38.54;39278.47;5038821;28;20051;-63
2024/04/04 08:33:39;;;;;;;3.60;1.25;;;;;;;-145.63;38.41;39282.41;5052911;28;20090;-63
2024/04/04 08:36:08;;;;;;;3.30;1.08;;;;;;;-145.63;38.58;39298.03;5050798;28;20041;-64
2024/04/04 08:39:03;;;;;;;5.03;1.50;;;;;;;-145.63;38.32;39309.78;5038904;28;20107;-67
2024/04/04 08:41:53;;;;;;;3.90;1.50;;;;;;;-145.63;38.95;39298.03;5052293;28;20114;-66
2024/04/04 08:44:34;;;;;;;6.38;2.20;;;;;;;-145.63;39.05;39241.31;5050591;28;20116;-68
2024/04/04 08:47:34;;;;;;;4.70;1.40;;;;;;;-145.63;38.25;39264.78;5043766;28;20106;-66
2024/04/04 08:50:14;;;;;;;3.90;1.10;;;;;;;-145.63;38.54;39260.88;5054656;28;20111;-64
2024/04/04 08:52:57;;;;;;;1.52;1.30;;;;;;;-145.63;38.44;39262.84;5034311;28;20075;-66
2024/04/04 08:55:29;;;;;;;2.83;1.67;;;;;;;-145.63;39.11;39249.16;5035539;28;20033;-65
2024/04/04 08:58:00;;;;;;;2.05;1.30;;;;;;;-145.63;38.61;39272.63;5054375;28;20499;-65
2024/04/04 09:00:28;;;;;;;3.75;1.67;;;;;;;-145.63;39.40;39255.00;5053966;28;20041;-66
2024/04/04 09:03:13;;;;;;;2.60;1.38;;;;;;;-145.63;38.72;39315.66;5051147;28;20029;-66
2024/04/04 09:06:34;;;;;;;3.47;1.55;;;;;;;-145.63;38.25;39260.88;5045834;28;20474;-65
2024/04/04 09:09:27;;;;;;;2.65;1.70;;;;;;;-145.63;38.34;39272.63;5046529;28;20075;-66
2024/04/04 09:11:56;;;;;;;4.18;1.40;;;;;;;-145.63;38.33;39268.72;5053487;28;20057;-68
2024/04/04 09:14:43;;;;;;;6.45;1.45;;;;;;;-145.63;38.41;39262.84;5038228;28;20546;-65
2024/04/04 09:17:28;;;;;;;2.25;1.48;;;;;;;-145.63;38.28;39260.88;5020105;28;20036;-67
2024/04/04 09:20:23;;;;;;;3.65;1.15;;;;;;;-145.63;37.99;39247.19;5049692;28;20063;-65
2024/04/04 09:23:29;;;;;;;4.35;1.38;;;;;;;-145.63;38.58;39268.72;5035671;28;20043;-65
2024/04/04 09:25:58;;;;;;;2.80;1.40;;;;;;;-145.63;38.29;39284.34;5053402;28;20466;-66
2024/04/04 09:28:30;;;;;;;2.28;1.35;;;;;;;-145.63;38.31;39278.47;5034551;28;20037;-65
2024/04/04 09:31:24;;;;;;;1.80;1.30;;;;;;;-145.63;38.70;39286.31;5050928;28;20055;-67
2024/04/04 09:34:21;;;;;;;3.55;1.92;;;;;;;-145.63;38.81;39309.78;5053527;28;20494;-68
2024/04/04 09:36:53;;;;;;;2.92;1.45;;;;;;;-145.63;39.41;39352.81;5038471;28;20073;-67
2024/04/04 09:39:37;;;;;;;3.92;1.10;;;;;;;-145.63;40.57;39343.03;5027957;28;20508;-66
2024/04/04 09:42:16;;;;;;;2.40;1.10;;;;;;;-145.63;41.40;39343.03;5053519;28;20163;-64
2024/04/04 09:51:19;;;;;;;2.58;1.00;;;;;;;-145.63;40.27;39307.81;5056403;28;20374;-65
2024/04/04 09:53:57;;;;;;;3.03;1.27;;;;;;;-145.63;40.93;39282.41;5064513;28;20516;-65
2024/04/04 09:56:51;;;;;;;6.82;1.77;;;;;;;-145.63;40.18;39280.44;5052907;28;20036;-65
2024/04/04 09:59:47;;;;;;;3.08;1.48;;;;;;;-145.63;39.84;39286.31;5053548;28;20451;-65
2024/04/04 10:02:18;;;;;;;2.15;1.20;;;;;;;-145.63;39.69;39272.63;5050045;28;20785;-63
2024/04/04 10:04:52;;;;;;;2.10;1.35;;;;;;;-145.63;40.74;39290.22;5033617;28;20044;-65
2024/04/04 10:07:37;;;;;;;7.75;1.10;;;;;;;-145.63;40.17;39266.75;5052293;28;20108;-66
2024/04/04 10:10:13;;;;;;;3.17;0.93;;;;;;;-145.63;39.60;39278.47;5052721;28;20036;-65
2024/04/04 10:12:52;;;;;;;3.63;1.30;;;;;;;-145.63;39.84;39264.78;5039404;28;20427;-66
2024/04/04 10:15:19;;;;;;;2.75;1.10;;;;;;;-145.63;39.05;39278.47;5044162;28;20040;-66
2024/04/04 10:18:08;;;;;;;4.72;1.60;;;;;;;-145.63;39.27;39264.78;5024910;28;20052;-67
2024/04/04 10:21:10;;;;;;;2.38;1.30;;;;;;;-145.63;40.15;39280.44;5032861;28;20033;-65
2024/04/04 10:23:51;;;;;;;3.95;1.40;;;;;;;-145.63;40.07;39339.13;5037654;28;20033;-66
2024/04/04 10:26:16;;;;;;;1.98;1.30;;;;;;;-145.63;40.24;39321.50;5051966;28;20037;-66
2024/04/04 10:28:54;;;;;;;3.60;1.52;;;;;;;-145.63;40.27;39305.88;5051033;28;20095;-65
2024/04/04 10:31:29;;;;;;;4.35;1.35;;;;;;;-145.63;42.46;39339.13;5033042;28;20049;-68
2024/04/04 10:34:17;;;;;;;4.63;1.67;;;;;;;-145.63;43.76;39354.75;5034547;28;20047;-66
2024/04/04 10:36:55;;;;;;;4.63;1.50;;;;;;;-145.63;44.37;39315.66;5037624;28;20124;-68
2024/04/04 10:39:35;;;;;;;1.52;1.30;;;;;;;-145.63;45.11;39329.34;5043379;28;20029;-68
2024/04/04 10:48:24;;;;;;;1.23;0.95;;;;;;;-145.63;44.91;39319.56;5043564;28;20036;-65
2024/04/04 10:54:11;;;;;;;1.60;1.13;;;;;;;-145.63;44.82;39329.34;5051240;28;20033;-66
2024/04/04 10:56:52;;;;;;;2.40;1.08;;;;;;;-145.63;45.31;39343.03;5049644;28;20608;-65
2024/04/04 10:59:19;;;;;;;1.48;1.30;;;;;;;-145.63;45.11;39282.41;5049637;28;20037;-66
2024/04/04 11:05:16;;;;;;;4.38;1.65;;;;;;;-145.63;44.33;39362.59;5041358;28;20040;-65
2024/04/04 11:08:03;;;;;;;2.63;1.55;;;;;;;-145.63;44.69;39298.03;5032122;28;20585;-66
2024/04/04 11:10:59;;;;;;;5.25;2.00;;;;;;;-145.63;44.52;39278.47;5031996;28;20025;-66
2024/04/04 11:13:35;;;;;;;2.25;1.70;;;;;;;-145.63;44.50;39272.63;5031976;28;20033;-66
2024/04/04 11:19:35;;;;;;;5.13;1.70;;;;;;;-145.63;43.30;39307.81;5045791;28;20033;-64
2024/04/04 11:22:57;;;;;;;3.17;2.08;;;;;;;-145.63;43.55;39280.44;5033306;28;20188;-65
2024/04/04 11:25:46;;;;;;;2.65;1.98;;;;;;;-145.63;43.72;39315.66;5050574;28;20032;-66
2024/04/04 11:28:12;;;;;;;2.17;1.83;;;;;;;-145.63;44.94;39303.91;5033706;28;20041;-65
2024/04/04 11:30:38;;;;;;;2.17;1.75;;;;;;;-145.63;44.90;39313.69;5043473;28;20076;-67
2024/04/04 11:33:28;;;;;;;2.78;1.80;;;;;;;-145.63;44.85;39329.34;5051064;28;20337;-65
2024/04/04 11:35:55;;;;;;;2.95;1.90;;;;;;;-145.63;44.31;39329.34;5051234;28;20037;-64
2024/04/04 11:38:30;;;;;;;3.13;1.80;;;;;;;-145.63;44.71;39337.16;5048570;28;20139;-64
2024/04/04 11:41:04;;;;;;;8.45;4.82;;;;;;;-145.63;44.24;39341.06;5036285;28;20063;-64
2024/04/04 11:43:48;;;;;;;4.03;2.92;;;;;;;-145.63;44.21;39329.34;5031924;28;20040;-66
2024/04/04 11:46:15;;;;;;;2.50;2.00;;;;;;;-145.63;43.74;39327.38;5046793;28;20025;-65
2024/04/04 11:49:08;;;;;;;4.50;2.05;;;;;;;-145.63;43.07;39343.03;5012768;28;20492;-65
2024/04/04 11:51:55;;;;;;;7.20;2.20;;;;;;;-145.63;44.01;39315.66;5050058;28;20037;-65
2024/04/04 11:54:32;;;;;;;2.65;2.05;;;;;;;-145.63;44.07;39329.34;5027453;28;20040;-67
2024/04/04 11:57:10;;;;;;;2.72;1.83;;;;;;;-145.63;43.57;39317.59;5050517;28;20444;-66
2024/04/04 11:59:42;;;;;;;3.53;2.10;;;;;;;-145.63;43.50;39346.94;5047107;28;20133;-65
2024/04/04 12:05:29;;;;;;;5.18;2.20;;;;;;;-145.63;43.85;39354.75;5031215;28;20068;-66
2024/04/04 12:07:58;;;;;;;3.30;1.90;;;;;;;-145.63;43.95;39337.16;5030555;28;20410;-65
2024/04/04 12:10:26;;;;;;;7.38;2.35;;;;;;;-145.63;43.32;39337.16;5030765;28;20037;-65
2024/04/04 12:13:07;;;;;;;6.28;2.30;;;;;;;-145.63;43.64;39337.16;5045267;28;20067;-66
2024/04/04 12:15:48;;;;;;;1.80;1.70;;;;;;;-145.63;43.44;39350.84;5051253;28;20060;-65
2024/04/04 12:21:41;;;;;;;3.67;1.88;;;;;;;-145.63;43.52;39339.13;5054851;28;20755;-66
2024/04/04 12:24:24;;;;;;;4.05;1.98;;;;;;;-145.63;43.47;39344.97;5054800;28;20172;-67
2024/04/04 12:26:53;;;;;;;2.33;1.85;;;;;;;-145.63;43.02;39333.25;5046257;28;20033;-66
2024/04/04 12:29:40;;;;;;;7.57;2.30;;;;;;;-145.63;43.16;39337.16;5023499;28;20033;-66
2024/04/04 12:32:24;;;;;;;4.78;1.92;;;;;;;-145.63;43.09;39305.88;5035112;28;20478;-64
2024/04/04 12:35:23;;;;;;;2.78;1.75;;;;;;;-145.63;43.21;39317.59;5036622;28;20529;-64
2024/04/04 12:37:58;;;;;;;2.35;1.80;;;;;;;-145.63;42.98;39298.03;5054255;28;20032;-65
2024/04/04 12:40:23;;;;;;;6.20;2.20;;;;;;;-145.63;42.64;39309.78;5018431;28;20411;-64
2024/04/04 12:42:49;;;;;;;5.07;2.00;;;;;;;-145.63;42.08;39315.66;5034323;28;20033;-66
2024/04/04 12:45:15;;;;;;;4.22;2.00;;;;;;;-145.63;42.77;39247.19;5043658;28;20028;-64
2024/04/04 12:51:00;;;;;;;6.45;2.35;;;;;;;-145.63;41.29;39288.25;5049021;28;20100;-65
2024/04/04 12:53:31;;;;;;;4.63;2.00;;;;;;;-145.63;41.03;39300.00;5053160;28;20021;-65
2024/04/04 12:56:09;;;;;;;5.68;2.53;;;;;;;-145.63;41.12;39286.31;5072171;28;20093;-66
2024/04/04 12:58:35;;;;;;;3.10;1.80;;;;;;;-145.63;40.98;39309.78;5035000;28;20038;-66
2024/04/04 13:01:00;;;;;;;5.78;2.30;;;;;;;-145.63;40.72;39278.47;5047775;28;20029;-66
2024/04/04 13:03:27;;;;;;;6.13;1.80;;;;;;;-145.63;41.91;39286.31;5046780;28;20435;-65
2024/04/04 13:05:56;;;;;;;1.95;1.70;;;;;;;-145.63;40.82;39280.44;5022813;28;20033;-66
2024/04/04 13:08:22;;;;;;;3.30;1.70;;;;;;;-145.63;40.35;39329.34;5049609;28;20447;-66
2024/04/04 13:10:48;;;;;;;4.50;1.98;;;;;;;-145.63;40.33;39286.31;5047871;28;20115;-65
2024/04/04 13:13:34;;;;;;;3.58;1.73;;;;;;;-145.63;40.46;39335.19;5050052;28;20108;-65
2024/04/04 13:16:27;;;;;;;4.03;2.08;;;;;;;-145.63;40.79;39300.00;5051304;28;20111;-68
2024/04/04 13:19:16;;;;;;;3.85;1.92;;;;;;;-145.63;41.06;39290.22;5028963;28;20117;-65
2024/04/04 13:22:07;;;;;;;2.65;1.63;;;;;;;-145.63;40.22;39309.78;5040341;28;20404;-66
2024/04/04 13:25:06;;;;;;;2.20;1.65;;;;;;;-145.63;39.72;39329.34;5040127;28;20099;-67
2024/04/04 13:30:56;;;;;;;6.03;2.50;;;;;;;-145.63;39.72;39329.34;5044806;28;20111;-65
2024/04/04 13:37:13;;;;;;;3.97;2.25;;;;;;;-145.63;38.58;39350.84;5031865;28;20095;-66
2024/04/04 13:39:57;;;;;;;2.55;1.60;;;;;;;-145.63;38.55;39327.38;5033078;28;20029;-66
2024/04/04 13:42:23;;;;;;;2.25;2.03;;;;;;;-145.63;38.82;39329.34;5044133;28;20064;-65